Time;durP1;ratioP1;P1;durP2;ratioP2;P2;SDS_P1;SDS_P2;PMS_P1;PMS_P2;Temp;Humidity;BMP_temperature;BMP_pressure;BME280_temperature;BME280_humidity;BME280_pressure;Samples;Min_cycle;Max_cycle;Signal;HPM_P1;HPM_P2
2023/08/05 00:00:47;;;;;;;12.73;11.83;;;;;;;;;;5032095;28;20582;-42
2023/08/05 00:03:14;;;;;;;13.40;12.60;;;;;;;;;;5032690;28;20499;-41
2023/08/05 00:05:42;;;;;;;13.07;12.07;;;;;;;;;;5032394;28;20506;-42
2023/08/05 00:08:10;;;;;;;13.80;12.60;;;;;;;;;;5032751;28;20435;-42
2023/08/05 00:10:42;;;;;;;12.47;11.87;;;;;;;;;;5031977;28;20513;-42
2023/08/05 00:13:09;;;;;;;12.80;12.20;;;;;;;;;;5032483;28;20523;-42
2023/08/05 00:15:37;;;;;;;13.53;12.93;;;;;;;;;;5032310;28;20448;-42
2023/08/05 00:18:04;;;;;;;13.60;12.73;;;;;;;;;;5032191;28;20471;-42
2023/08/05 00:20:32;;;;;;;14.53;13.63;;;;;;;;;;5031262;28;20467;-45
2023/08/05 00:22:59;;;;;;;14.43;13.10;;;;;;;;;;5032216;28;20571;-45
2023/08/05 00:25:27;;;;;;;13.63;13.03;;;;;;;;;;5032013;28;20510;-44
2023/08/05 00:27:56;;;;;;;14.50;13.50;;;;;;;;;;5032353;28;20505;-46
2023/08/05 00:30:23;;;;;;;14.33;13.40;;;;;;;;;;5031809;28;20464;-44
2023/08/05 00:32:51;;;;;;;14.40;13.60;;;;;;;;;;5032014;28;20510;-44
2023/08/05 00:35:19;;;;;;;14.17;13.37;;;;;;;;;;5031984;28;20535;-43
2023/08/05 00:37:47;;;;;;;14.63;13.63;;;;;;;;;;5032072;28;20503;-42
2023/08/05 00:40:15;;;;;;;14.10;13.10;;;;;;;;;;5031649;28;20551;-41
2023/08/05 00:42:42;;;;;;;14.40;13.67;;;;;;;;;;5031693;28;20476;-41
2023/08/05 00:45:11;;;;;;;14.80;14.10;;;;;;;;;;5032057;28;20787;-42
2023/08/05 00:47:39;;;;;;;15.63;14.70;;;;;;;;;;5031721;28;20436;-42
2023/08/05 00:50:07;;;;;;;15.17;14.30;;;;;;;;;;5031405;28;20456;-42
2023/08/05 00:52:35;;;;;;;15.40;14.40;;;;;;;;;;5031730;28;20495;-43
2023/08/05 00:55:02;;;;;;;14.70;13.90;;;;;;;;;;5032013;28;20448;-41
2023/08/05 00:57:30;;;;;;;15.70;14.90;;;;;;;;;;5031640;28;20440;-44
2023/08/05 00:59:57;;;;;;;15.70;14.83;;;;;;;;;;5031387;28;20484;-42
2023/08/05 01:02:26;;;;;;;16.00;15.00;;;;;;;;;;5031578;28;20519;-41
2023/08/05 01:04:54;;;;;;;15.70;14.67;;;;;;;;;;5031376;28;21039;-43
2023/08/05 01:07:22;;;;;;;15.87;14.80;;;;;;;;;;5031792;28;20960;-42
2023/08/05 01:09:50;;;;;;;16.93;15.47;;;;;;;;;;5031190;28;21033;-42
2023/08/05 01:12:17;;;;;;;17.67;16.27;;;;;;;;;;5031706;28;20523;-43
2023/08/05 01:14:45;;;;;;;15.90;15.03;;;;;;;;;;5031391;28;20527;-42
2023/08/05 01:17:12;;;;;;;16.53;15.73;;;;;;;;;;5031501;28;20444;-42
2023/08/05 01:19:42;;;;;;;15.97;15.10;;;;;;;;;;5030640;28;20989;-42
2023/08/05 01:22:11;;;;;;;16.63;15.63;;;;;;;;;;5031498;28;20444;-42
2023/08/05 01:24:42;;;;;;;15.50;14.50;;;;;;;;;;5031414;28;20482;-42
2023/08/05 01:27:11;;;;;;;16.43;15.43;;;;;;;;;;5031558;28;20830;-42
2023/08/05 01:29:39;;;;;;;16.20;15.50;;;;;;;;;;5030980;28;20498;-42
2023/08/05 01:32:07;;;;;;;16.73;15.93;;;;;;;;;;5031479;28;20474;-42
2023/08/05 01:34:35;;;;;;;15.80;14.73;;;;;;;;;;5031590;28;20494;-41
2023/08/05 01:37:02;;;;;;;17.93;16.60;;;;;;;;;;5031453;28;20485;-41
2023/08/05 01:39:30;;;;;;;16.33;15.40;;;;;;;;;;5031141;28;20468;-42
2023/08/05 01:41:57;;;;;;;18.07;17.07;;;;;;;;;;5031203;28;20456;-44
2023/08/05 01:44:26;;;;;;;17.03;15.80;;;;;;;;;;5034015;28;20475;-42
2023/08/05 01:46:54;;;;;;;16.90;16.10;;;;;;;;;;5035467;28;20435;-41
2023/08/05 01:49:22;;;;;;;17.47;16.43;;;;;;;;;;5034691;28;20464;-42
2023/08/05 01:51:49;;;;;;;18.13;16.77;;;;;;;;;;5035083;28;20821;-41
2023/08/05 01:54:17;;;;;;;16.43;15.63;;;;;;;;;;5034813;28;20942;-41
2023/08/05 01:56:44;;;;;;;17.27;16.27;;;;;;;;;;5034944;28;20436;-42
2023/08/05 01:59:12;;;;;;;17.07;16.23;;;;;;;;;;5034459;28;20460;-42
2023/08/05 02:01:45;;;;;;;16.87;15.80;;;;;;;;;;5034874;28;20440;-41
2023/08/05 02:04:12;;;;;;;17.77;16.57;;;;;;;;;;5034831;28;20471;-42
2023/08/05 02:06:40;;;;;;;17.07;15.93;;;;;;;;;;5034865;28;20448;-42
2023/08/05 02:09:08;;;;;;;17.57;16.67;;;;;;;;;;5034547;28;20487;-42
2023/08/05 02:11:35;;;;;;;18.30;17.40;;;;;;;;;;5034756;28;20428;-42
2023/08/05 02:14:03;;;;;;;18.53;17.23;;;;;;;;;;5033355;28;21071;-43
2023/08/05 02:16:33;;;;;;;18.83;17.73;;;;;;;;;;5033240;28;20543;-42
2023/08/05 02:19:02;;;;;;;18.50;17.20;;;;;;;;;;5032506;28;20439;-42
2023/08/05 02:21:30;;;;;;;19.20;17.80;;;;;;;;;;5033101;28;20849;-42
2023/08/05 02:23:57;;;;;;;18.43;17.03;;;;;;;;;;5032709;28;20476;-44
2023/08/05 02:26:25;;;;;;;19.10;18.10;;;;;;;;;;5033609;28;20869;-44
2023/08/05 02:28:53;;;;;;;19.07;17.77;;;;;;;;;;5031924;28;20436;-42
2023/08/05 02:31:20;;;;;;;18.47;17.10;;;;;;;;;;5034357;28;20487;-42
2023/08/05 02:33:48;;;;;;;18.57;17.50;;;;;;;;;;5040180;28;20441;-42
2023/08/05 02:36:16;;;;;;;18.63;17.63;;;;;;;;;;5039305;28;20502;-44
2023/08/05 02:38:44;;;;;;;18.93;17.80;;;;;;;;;;5039320;28;20451;-42
2023/08/05 02:41:11;;;;;;;19.43;18.27;;;;;;;;;;5039549;28;20448;-42
2023/08/05 02:43:39;;;;;;;19.20;18.10;;;;;;;;;;5039616;28;20885;-43
2023/08/05 02:46:08;;;;;;;18.60;17.60;;;;;;;;;;5039150;28;20456;-42
2023/08/05 02:48:36;;;;;;;20.23;18.77;;;;;;;;;;5040126;28;20432;-41
2023/08/05 02:51:04;;;;;;;19.33;18.10;;;;;;;;;;5041037;28;20498;-48
2023/08/05 02:53:33;;;;;;;20.40;19.17;;;;;;;;;;5041175;28;20432;-41
2023/08/05 02:56:00;;;;;;;18.73;17.90;;;;;;;;;;5042285;28;20451;-43
2023/08/05 02:58:28;;;;;;;19.17;18.03;;;;;;;;;;5041432;28;20464;-42
2023/08/05 03:01:04;;;;;;;19.20;18.23;;;;;;;;;;5041822;28;20491;-41
2023/08/05 03:03:32;;;;;;;20.00;18.90;;;;;;;;;;5040398;28;20436;-40
2023/08/05 03:05:59;;;;;;;20.23;19.13;;;;;;;;;;5042074;28;20536;-42
2023/08/05 03:08:27;;;;;;;20.33;19.33;;;;;;;;;;5041529;28;20436;-41
2023/08/05 03:10:59;;;;;;;20.13;19.00;;;;;;;;;;5040425;28;20479;-43
2023/08/05 03:13:27;;;;;;;20.00;18.50;;;;;;;;;;5040371;28;20462;-41
2023/08/05 03:15:53;;;;;;;19.70;18.90;;;;;;;;;;5041058;28;20548;-41
2023/08/05 03:18:21;;;;;;;20.93;19.83;;;;;;;;;;5040917;28;20935;-41
2023/08/05 03:20:49;;;;;;;20.93;19.83;;;;;;;;;;5040886;28;20468;-42
2023/08/05 03:23:16;;;;;;;20.57;19.47;;;;;;;;;;5041345;28;20656;-41
2023/08/05 03:25:44;;;;;;;21.03;19.97;;;;;;;;;;5040757;28;20993;-42
2023/08/05 03:28:13;;;;;;;19.43;18.57;;;;;;;;;;5040468;28;21039;-42
2023/08/05 03:30:40;;;;;;;20.03;19.20;;;;;;;;;;5040525;28;20931;-41
2023/08/05 03:33:08;;;;;;;20.20;19.20;;;;;;;;;;5041327;28;20463;-43
2023/08/05 03:35:36;;;;;;;20.80;19.80;;;;;;;;;;5040520;28;20471;-41
2023/08/05 03:38:03;;;;;;;20.80;19.57;;;;;;;;;;5040036;28;20424;-43
2023/08/05 03:40:32;;;;;;;20.23;19.33;;;;;;;;;;5041068;28;20549;-41
2023/08/05 03:43:00;;;;;;;21.23;20.43;;;;;;;;;;5040236;28;20463;-43
2023/08/05 03:45:29;;;;;;;20.20;19.40;;;;;;;;;;5040954;28;20542;-42
2023/08/05 03:47:56;;;;;;;21.30;20.13;;;;;;;;;;5039495;28;21036;-44
2023/08/05 03:50:24;;;;;;;21.00;20.10;;;;;;;;;;5039560;28;20475;-43
2023/08/05 03:52:53;;;;;;;21.63;20.40;;;;;;;;;;5038951;28;20456;-42
2023/08/05 03:55:21;;;;;;;22.13;20.90;;;;;;;;;;5038846;28;20458;-42
2023/08/05 03:57:48;;;;;;;20.43;19.40;;;;;;;;;;5038773;28;20427;-42
2023/08/05 04:00:17;;;;;;;22.00;20.67;;;;;;;;;;5038257;28;20468;-41
2023/08/05 04:02:46;;;;;;;20.87;19.90;;;;;;;;;;5038886;28;21029;-41
2023/08/05 04:05:14;;;;;;;20.10;19.40;;;;;;;;;;5038830;28;20483;-41
2023/08/05 04:07:42;;;;;;;20.70;19.63;;;;;;;;;;5039716;28;20432;-43
2023/08/05 04:10:12;;;;;;;22.13;20.90;;;;;;;;;;5038031;28;20476;-44
2023/08/05 04:12:39;;;;;;;21.67;20.50;;;;;;;;;;5039730;28;20436;-43
2023/08/05 04:15:08;;;;;;;21.57;20.57;;;;;;;;;;5038610;28;20452;-41
2023/08/05 04:17:35;;;;;;;21.50;20.50;;;;;;;;;;5039056;28;20941;-41
2023/08/05 04:20:05;;;;;;;22.20;21.00;;;;;;;;;;5030731;28;20555;-42
2023/08/05 04:22:35;;;;;;;21.40;20.40;;;;;;;;;;5041083;28;20471;-42
2023/08/05 04:25:02;;;;;;;21.50;20.40;;;;;;;;;;5040320;28;20476;-41
2023/08/05 04:27:30;;;;;;;21.63;20.63;;;;;;;;;;5039198;28;20424;-42
2023/08/05 04:29:58;;;;;;;21.70;20.30;;;;;;;;;;5037830;28;20468;-42
2023/08/05 04:32:25;;;;;;;23.03;21.40;;;;;;;;;;5039509;28;20576;-41
2023/08/05 04:34:53;;;;;;;21.00;19.93;;;;;;;;;;5039460;28;20590;-42
2023/08/05 04:37:22;;;;;;;20.60;19.37;;;;;;;;;;5039693;28;20444;-42
2023/08/05 04:39:50;;;;;;;20.20;19.30;;;;;;;;;;5038009;28;20487;-41
2023/08/05 04:42:18;;;;;;;22.70;21.40;;;;;;;;;;5039930;28;20436;-44
2023/08/05 04:44:46;;;;;;;21.47;20.13;;;;;;;;;;5040052;28;20839;-42
2023/08/05 04:47:13;;;;;;;21.90;20.60;;;;;;;;;;5040986;28;21106;-43
2023/08/05 04:49:42;;;;;;;21.03;20.20;;;;;;;;;;5038039;28;20858;-44
2023/08/05 04:52:12;;;;;;;22.37;21.00;;;;;;;;;;5039524;28;20527;-42
2023/08/05 04:54:43;;;;;;;21.37;20.47;;;;;;;;;;5039167;28;20502;-45
2023/08/05 04:57:11;;;;;;;21.67;20.77;;;;;;;;;;5038588;28;20483;-41
2023/08/05 04:59:39;;;;;;;21.73;20.63;;;;;;;;;;5036624;28;20812;-41
2023/08/05 05:02:07;;;;;;;20.87;20.07;;;;;;;;;;5039130;28;20965;-44
2023/08/05 05:04:34;;;;;;;20.90;20.00;;;;;;;;;;5039497;28;20440;-43
2023/08/05 05:07:02;;;;;;;20.83;19.50;;;;;;;;;;5041036;28;20420;-42
2023/08/05 05:09:30;;;;;;;20.40;19.50;;;;;;;;;;5040060;28;20468;-42
2023/08/05 05:12:00;;;;;;;21.17;20.17;;;;;;;;;;5041158;28;20462;-44
2023/08/05 05:14:27;;;;;;;20.43;19.43;;;;;;;;;;5040517;28;20914;-43
2023/08/05 05:16:55;;;;;;;20.00;18.90;;;;;;;;;;5040778;28;20432;-43
2023/08/05 05:19:22;;;;;;;20.17;19.07;;;;;;;;;;5043655;28;21063;-42
2023/08/05 05:21:50;;;;;;;22.03;20.47;;;;;;;;;;5045921;28;20431;-47
2023/08/05 05:24:21;;;;;;;20.70;19.77;;;;;;;;;;5045215;28;20528;-44
2023/08/05 05:26:48;;;;;;;21.07;20.27;;;;;;;;;;5045902;28;20471;-41
2023/08/05 05:29:19;;;;;;;20.60;19.80;;;;;;;;;;5044518;28;20534;-41
2023/08/05 05:31:47;;;;;;;21.20;20.27;;;;;;;;;;5045452;28;20486;-43
2023/08/05 05:34:15;;;;;;;20.00;19.20;;;;;;;;;;5046107;28;20431;-41
2023/08/05 05:36:42;;;;;;;21.53;20.70;;;;;;;;;;5045982;28;20459;-41
2023/08/05 05:39:10;;;;;;;20.90;20.10;;;;;;;;;;5044623;28;20478;-41
2023/08/05 05:41:38;;;;;;;21.37;20.47;;;;;;;;;;5044765;28;20466;-46
2023/08/05 05:44:05;;;;;;;21.17;20.27;;;;;;;;;;5044606;28;20436;-42
2023/08/05 05:46:34;;;;;;;20.63;19.63;;;;;;;;;;5044800;28;20495;-42
2023/08/05 05:49:03;;;;;;;20.67;19.67;;;;;;;;;;5044343;28;20435;-41
2023/08/05 05:51:30;;;;;;;20.60;19.60;;;;;;;;;;5045103;28;20501;-42
2023/08/05 05:53:58;;;;;;;20.17;19.37;;;;;;;;;;5044176;28;20494;-43
2023/08/05 05:56:25;;;;;;;22.07;20.03;;;;;;;;;;5045572;28;20451;-41
2023/08/05 05:58:54;;;;;;;20.40;19.70;;;;;;;;;;5045470;28;20953;-43
2023/08/05 06:01:23;;;;;;;20.10;19.30;;;;;;;;;;5045551;28;20451;-41
2023/08/05 06:03:52;;;;;;;20.27;19.27;;;;;;;;;;5045255;28;20466;-42
2023/08/05 06:06:20;;;;;;;22.63;21.47;;;;;;;;;;5045345;28;20531;-42
2023/08/05 06:08:47;;;;;;;20.70;19.90;;;;;;;;;;5045765;28;20432;-42
2023/08/05 06:11:15;;;;;;;19.67;18.77;;;;;;;;;;5046058;28;20447;-42
2023/08/05 06:13:42;;;;;;;19.37;18.37;;;;;;;;;;5046463;28;20435;-44
2023/08/05 06:16:10;;;;;;;21.33;20.07;;;;;;;;;;5045321;28;20861;-42
2023/08/05 06:18:37;;;;;;;18.80;17.70;;;;;;;;;;5045630;28;20428;-42
2023/08/05 06:21:06;;;;;;;22.80;21.43;;;;;;;;;;5045576;28;20464;-41
2023/08/05 06:23:34;;;;;;;18.87;17.93;;;;;;;;;;5045595;28;20451;-41
2023/08/05 06:26:01;;;;;;;17.43;16.73;;;;;;;;;;5046057;28;20475;-43
2023/08/05 06:28:29;;;;;;;18.27;17.47;;;;;;;;;;5045835;28;20916;-42
2023/08/05 06:30:57;;;;;;;17.77;17.07;;;;;;;;;;5045596;28;20463;-41
2023/08/05 06:33:24;;;;;;;17.70;17.10;;;;;;;;;;5045458;28;20450;-41
2023/08/05 06:35:52;;;;;;;16.93;16.33;;;;;;;;;;5045639;28;20455;-41
2023/08/05 06:38:21;;;;;;;16.97;16.27;;;;;;;;;;5044984;28;20438;-41
2023/08/05 06:40:51;;;;;;;16.30;15.70;;;;;;;;;;5044336;28;20529;-41
2023/08/05 06:43:19;;;;;;;16.70;16.10;;;;;;;;;;5045495;28;20535;-41
2023/08/05 06:45:46;;;;;;;16.77;16.00;;;;;;;;;;5046117;28;20502;-41
2023/08/05 06:48:15;;;;;;;15.33;14.93;;;;;;;;;;5045576;28;20528;-41
2023/08/05 06:50:42;;;;;;;16.70;15.90;;;;;;;;;;5044933;28;20472;-42
2023/08/05 06:53:10;;;;;;;15.17;14.57;;;;;;;;;;5045788;28;20986;-41
2023/08/05 06:55:38;;;;;;;16.07;15.20;;;;;;;;;;5044530;28;20513;-42
2023/08/05 06:58:06;;;;;;;14.47;13.87;;;;;;;;;;5044761;28;20431;-42
2023/08/05 07:00:34;;;;;;;13.93;13.37;;;;;;;;;;5046541;28;20535;-42
2023/08/05 07:03:02;;;;;;;14.27;13.70;;;;;;;;;;5044548;28;20462;-42
2023/08/05 07:05:30;;;;;;;13.23;12.73;;;;;;;;;;5045467;28;20455;-41
2023/08/05 07:07:57;;;;;;;12.30;11.90;;;;;;;;;;5045547;28;20474;-41
2023/08/05 07:10:25;;;;;;;12.23;11.63;;;;;;;;;;5044408;28;20485;-42
2023/08/05 07:12:54;;;;;;;11.13;10.63;;;;;;;;;;5045151;28;20511;-42
2023/08/05 07:15:21;;;;;;;9.87;9.37;;;;;;;;;;5044944;28;20845;-42
2023/08/05 07:17:49;;;;;;;8.77;8.17;;;;;;;;;;5044771;28;20468;-43
2023/08/05 07:20:17;;;;;;;7.20;7.00;;;;;;;;;;5044547;28;20487;-42
2023/08/05 07:22:44;;;;;;;6.90;6.50;;;;;;;;;;5044122;28;20451;-42
2023/08/05 07:25:12;;;;;;;6.17;5.97;;;;;;;;;;5043429;28;21081;-44
2023/08/05 07:27:39;;;;;;;6.20;5.90;;;;;;;;;;5044870;28;20482;-43
2023/08/05 07:30:09;;;;;;;5.67;5.40;;;;;;;;;;5043486;28;20470;-42
2023/08/05 07:32:37;;;;;;;5.50;5.20;;;;;;;;;;5043503;28;20432;-42
2023/08/05 07:35:07;;;;;;;5.27;4.90;;;;;;;;;;5043686;28;20470;-43
2023/08/05 07:37:35;;;;;;;6.10;5.70;;;;;;;;;;5044760;28;20443;-42
2023/08/05 07:40:05;;;;;;;5.10;4.73;;;;;;;;;;5043050;28;20510;-42
2023/08/05 07:42:34;;;;;;;4.20;4.10;;;;;;;;;;5043812;28;20455;-44
2023/08/05 07:45:07;;;;;;;4.53;4.33;;;;;;;;;;5043891;28;20520;-46
2023/08/05 07:47:40;;;;;;;3.53;3.43;;;;;;;;;;5043454;28;20475;-45
2023/08/05 07:50:10;;;;;;;4.07;3.80;;;;;;;;;;5042800;28;20558;-45
2023/08/05 07:52:37;;;;;;;5.03;4.10;;;;;;;;;;5042727;28;20458;-43
2023/08/05 07:55:05;;;;;;;7.83;7.03;;;;;;;;;;5043381;28;20810;-45
2023/08/05 07:57:34;;;;;;;4.10;3.70;;;;;;;;;;5043067;28;20439;-46
2023/08/05 08:00:04;;;;;;;3.80;3.70;;;;;;;;;;5043605;28;20470;-45
2023/08/05 08:02:31;;;;;;;4.20;4.00;;;;;;;;;;5043112;28;20515;-42
2023/08/05 08:05:04;;;;;;;4.77;4.47;;;;;;;;;;5043544;28;20875;-42
2023/08/05 08:07:31;;;;;;;3.90;3.60;;;;;;;;;;5043026;28;20471;-44
2023/08/05 08:09:59;;;;;;;3.40;3.20;;;;;;;;;;5043328;28;20893;-42
2023/08/05 08:12:26;;;;;;;4.33;4.13;;;;;;;;;;5043603;28;20431;-44
2023/08/05 08:14:54;;;;;;;3.40;3.20;;;;;;;;;;5043813;28;20463;-45
2023/08/05 08:17:22;;;;;;;3.33;3.00;;;;;;;;;;5044223;28;20451;-43
2023/08/05 08:19:50;;;;;;;3.30;3.10;;;;;;;;;;5042578;28;20463;-42
2023/08/05 08:22:19;;;;;;;3.27;3.07;;;;;;;;;;5042901;28;20451;-43
2023/08/05 08:24:46;;;;;;;3.37;3.03;;;;;;;;;;5042973;28;20791;-42
2023/08/05 08:27:14;;;;;;;3.37;3.07;;;;;;;;;;5042388;28;20468;-47
2023/08/05 08:29:42;;;;;;;2.80;2.70;;;;;;;;;;5041668;28;20506;-42
2023/08/05 08:32:10;;;;;;;3.70;3.50;;;;;;;;;;5042172;28;20992;-42
2023/08/05 08:34:37;;;;;;;2.80;2.70;;;;;;;;;;5042838;28;20432;-42
2023/08/05 08:37:05;;;;;;;3.17;2.97;;;;;;;;;;5042180;28;20503;-48
2023/08/05 08:39:34;;;;;;;2.93;2.83;;;;;;;;;;5042405;28;20505;-45
2023/08/05 08:42:02;;;;;;;3.57;3.37;;;;;;;;;;5042079;28;20436;-43
2023/08/05 08:44:30;;;;;;;3.30;3.00;;;;;;;;;;5041740;28;20842;-42
2023/08/05 08:46:58;;;;;;;2.90;2.80;;;;;;;;;;5038886;28;20586;-42
2023/08/05 08:49:26;;;;;;;3.00;2.80;;;;;;;;;;5031425;28;20456;-44
2023/08/05 08:51:54;;;;;;;2.40;2.30;;;;;;;;;;5031586;28;20436;-46
2023/08/05 08:54:22;;;;;;;3.40;2.60;;;;;;;;;;5031695;28;20946;-42
2023/08/05 08:56:51;;;;;;;2.90;2.80;;;;;;;;;;5031842;28;20968;-44
2023/08/05 08:59:19;;;;;;;4.70;3.10;;;;;;;;;;5031370;28;20904;-41
2023/08/05 09:01:47;;;;;;;2.93;2.73;;;;;;;;;;5031718;28;20436;-41
2023/08/05 09:04:16;;;;;;;2.70;2.50;;;;;;;;;;5031651;28;20822;-42
2023/08/05 09:06:46;;;;;;;3.40;3.00;;;;;;;;;;5031397;28;20977;-46
2023/08/05 09:09:14;;;;;;;2.93;2.63;;;;;;;;;;5031419;28;20829;-42
2023/08/05 09:11:41;;;;;;;3.70;3.23;;;;;;;;;;5031518;28;20997;-44
2023/08/05 09:14:10;;;;;;;5.90;3.70;;;;;;;;;;5031611;28;20431;-42
2023/08/05 09:16:55;;;;;;;3.30;3.00;;;;;;;;;;5031383;28;20509;-42
2023/08/05 09:19:24;;;;;;;3.60;3.30;;;;;;;;;;5031159;28;21029;-42
2023/08/05 09:21:51;;;;;;;3.60;3.03;;;;;;;;;;5031539;28;20476;-44
2023/08/05 09:24:23;;;;;;;3.70;3.47;;;;;;;;;;5031716;28;20776;-41
2023/08/05 09:26:55;;;;;;;4.00;3.80;;;;;;;;;;5030996;28;20431;-41
2023/08/05 09:29:24;;;;;;;3.73;3.40;;;;;;;;;;5030686;28;20459;-43
2023/08/05 09:31:56;;;;;;;4.10;3.80;;;;;;;;;;5030858;28;20447;-41
2023/08/05 09:34:31;;;;;;;3.73;3.53;;;;;;;;;;5030964;28;20470;-45
2023/08/05 09:36:58;;;;;;;4.17;3.77;;;;;;;;;;5030907;28;20439;-43
2023/08/05 09:39:30;;;;;;;3.57;3.37;;;;;;;;;;5030193;28;20471;-42
2023/08/05 09:41:59;;;;;;;4.00;3.80;;;;;;;;;;5030663;28;20475;-45
2023/08/05 09:44:28;;;;;;;3.90;3.70;;;;;;;;;;5030600;28;20460;-41
2023/08/05 09:46:56;;;;;;;4.30;4.10;;;;;;;;;;5030519;28;20849;-41
2023/08/05 09:49:25;;;;;;;3.83;3.53;;;;;;;;;;5029602;28;20989;-44
2023/08/05 09:51:53;;;;;;;3.37;3.17;;;;;;;;;;5030435;28;20497;-41
2023/08/05 09:54:28;;;;;;;3.90;3.60;;;;;;;;;;5031084;28;20431;-44
2023/08/05 09:56:57;;;;;;;4.03;3.80;;;;;;;;;;5031153;28;20440;-42
2023/08/05 09:59:26;;;;;;;3.37;3.27;;;;;;;;;;5030715;28;20486;-43
2023/08/05 10:01:56;;;;;;;4.00;3.80;;;;;;;;;;5030524;28;20431;-42
2023/08/05 10:04:24;;;;;;;4.00;3.80;;;;;;;;;;5031748;28;20525;-41
2023/08/05 10:06:53;;;;;;;4.50;4.20;;;;;;;;;;5034439;28;20434;-42
2023/08/05 10:09:20;;;;;;;4.93;4.53;;;;;;;;;;5033575;28;20467;-42
2023/08/05 10:11:49;;;;;;;6.87;5.33;;;;;;;;;;5033430;28;20435;-41
2023/08/05 10:14:16;;;;;;;14.80;6.30;;;;;;;;;;5034048;28;20440;-43
2023/08/05 10:16:45;;;;;;;8.10;6.47;;;;;;;;;;5033868;28;20501;-43
2023/08/05 10:19:14;;;;;;;6.90;6.27;;;;;;;;;;5033425;28;20466;-42
2023/08/05 10:21:42;;;;;;;7.83;5.90;;;;;;;;;;5033791;28;20443;-42
2023/08/05 10:24:09;;;;;;;6.10;5.50;;;;;;;;;;5034024;28;20857;-41
2023/08/05 10:26:44;;;;;;;5.53;5.00;;;;;;;;;;5033841;28;20455;-42
2023/08/05 10:29:27;;;;;;;6.20;5.70;;;;;;;;;;5033036;28;20459;-41
2023/08/05 10:32:10;;;;;;;5.40;5.00;;;;;;;;;;5033650;28;20455;-42
2023/08/05 10:34:39;;;;;;;6.20;5.90;;;;;;;;;;5033618;28;20439;-44
2023/08/05 10:37:07;;;;;;;6.83;6.33;;;;;;;;;;5033704;28;20443;-45
2023/08/05 10:39:40;;;;;;;5.63;5.33;;;;;;;;;;5033019;28;20873;-43
2023/08/05 10:42:35;;;;;;;6.37;5.60;;;;;;;;;;5033708;28;20853;-45
2023/08/05 10:45:06;;;;;;;5.50;5.30;;;;;;;;;;4987381;28;20478;-43
2023/08/05 10:47:34;;;;;;;6.53;6.10;;;;;;;;;;5033607;28;20839;-41
2023/08/05 10:50:03;;;;;;;5.67;5.47;;;;;;;;;;5032095;28;20879;-42
2023/08/05 10:52:36;;;;;;;6.53;6.10;;;;;;;;;;5033359;28;20443;-41
2023/08/05 10:55:09;;;;;;;6.13;5.57;;;;;;;;;;5033279;28;20463;-43
2023/08/05 10:57:45;;;;;;;4.33;4.20;;;;;;;;;;5032901;28;20503;-44
2023/08/05 11:00:23;;;;;;;4.20;4.00;;;;;;;;;;5030253;28;20459;-41
2023/08/05 11:03:05;;;;;;;5.07;4.80;;;;;;;;;;5033013;28;20530;-41
2023/08/05 11:05:34;;;;;;;4.40;4.20;;;;;;;;;;5016797;28;20826;-42
2023/08/05 11:08:02;;;;;;;4.60;4.30;;;;;;;;;;5033130;28;20533;-45
2023/08/05 11:10:31;;;;;;;5.17;4.97;;;;;;;;;;5032440;28;21030;-44
2023/08/05 11:12:59;;;;;;;5.17;4.97;;;;;;;;;;5033219;28;20869;-45
2023/08/05 11:15:26;;;;;;;5.10;4.80;;;;;;;;;;5031779;28;20460;-41
2023/08/05 11:17:54;;;;;;;4.90;4.70;;;;;;;;;;5032716;28;20516;-41
2023/08/05 11:20:30;;;;;;;5.10;4.80;;;;;;;;;;5032430;28;21009;-43
2023/08/05 11:22:59;;;;;;;5.50;5.07;;;;;;;;;;5032880;28;20944;-41
2023/08/05 11:25:27;;;;;;;4.87;4.67;;;;;;;;;;5032856;28;20513;-42
2023/08/05 11:27:55;;;;;;;5.37;5.13;;;;;;;;;;5032815;28;20475;-42
2023/08/05 11:30:23;;;;;;;4.63;4.27;;;;;;;;;;5032324;28;20463;-41
2023/08/05 11:32:51;;;;;;;5.00;4.70;;;;;;;;;;5032020;28;20431;-42
2023/08/05 11:35:18;;;;;;;4.20;3.90;;;;;;;;;;5032464;28;20455;-43
2023/08/05 11:37:46;;;;;;;4.20;3.80;;;;;;;;;;5032830;28;20447;-46
2023/08/05 11:40:15;;;;;;;5.30;3.90;;;;;;;;;;5031838;28;20517;-45
2023/08/05 11:42:43;;;;;;;4.50;4.30;;;;;;;;;;5032713;28;20432;-41
2023/08/05 11:45:12;;;;;;;4.40;4.30;;;;;;;;;;5032748;28;20456;-41
2023/08/05 11:47:40;;;;;;;3.97;3.77;;;;;;;;;;5032169;28;20443;-45
2023/08/05 11:50:09;;;;;;;4.27;4.07;;;;;;;;;;5031767;28;20470;-42
2023/08/05 11:52:37;;;;;;;3.67;3.47;;;;;;;;;;5032034;28;20431;-43
2023/08/05 11:55:05;;;;;;;3.73;3.63;;;;;;;;;;5032274;28;20491;-44
2023/08/05 11:57:34;;;;;;;3.90;3.60;;;;;;;;;;5032299;28;20440;-43
2023/08/05 12:00:05;;;;;;;4.30;3.87;;;;;;;;;;5031531;28;20487;-45
2023/08/05 12:02:34;;;;;;;3.73;3.33;;;;;;;;;;5031628;28;20440;-44
2023/08/05 12:05:02;;;;;;;4.90;3.43;;;;;;;;;;5031486;28;20970;-42
2023/08/05 12:07:33;;;;;;;3.50;3.30;;;;;;;;;;5032403;28;20859;-45
2023/08/05 12:10:03;;;;;;;3.30;3.20;;;;;;;;;;5031499;28;20989;-43
2023/08/05 12:12:31;;;;;;;3.77;3.53;;;;;;;;;;5031663;28;20431;-46
2023/08/05 12:15:09;;;;;;;4.30;3.90;;;;;;;;;;5031801;28;20455;-42
2023/08/05 12:17:37;;;;;;;3.90;3.70;;;;;;;;;;5030689;28;20439;-41
2023/08/05 12:20:06;;;;;;;3.97;3.67;;;;;;;;;;5031122;28;20463;-47
2023/08/05 12:22:33;;;;;;;3.67;3.40;;;;;;;;;;5031362;28;20569;-42
2023/08/05 12:25:01;;;;;;;3.53;3.33;;;;;;;;;;5032320;28;20483;-42
2023/08/05 12:27:28;;;;;;;3.90;3.53;;;;;;;;;;5032229;28;20478;-42
2023/08/05 12:29:56;;;;;;;4.23;3.33;;;;;;;;;;5031129;28;20459;-45
2023/08/05 12:32:25;;;;;;;3.83;3.60;;;;;;;;;;5031068;28;20428;-42
2023/08/05 12:34:52;;;;;;;3.27;3.17;;;;;;;;;;5031488;28;20539;-41
2023/08/05 12:37:20;;;;;;;3.47;3.23;;;;;;;;;;5031937;28;21107;-43
2023/08/05 12:39:47;;;;;;;4.47;4.17;;;;;;;;;;5031611;28;20647;-44
2023/08/05 12:42:15;;;;;;;3.93;3.70;;;;;;;;;;5031465;28;20428;-42
2023/08/05 12:44:42;;;;;;;3.50;3.30;;;;;;;;;;5031409;28;20474;-42
2023/08/05 12:47:10;;;;;;;3.30;3.10;;;;;;;;;;5031505;28;20485;-42
2023/08/05 12:49:39;;;;;;;3.07;2.97;;;;;;;;;;5030979;28;20900;-45
2023/08/05 12:52:07;;;;;;;4.23;3.87;;;;;;;;;;5031047;28;20445;-42
2023/08/05 12:54:35;;;;;;;3.53;3.30;;;;;;;;;;5031400;28;20436;-44
2023/08/05 12:57:02;;;;;;;4.10;3.80;;;;;;;;;;5031543;28;20482;-43
2023/08/05 12:59:30;;;;;;;3.17;2.90;;;;;;;;;;5030677;28;20460;-45
2023/08/05 13:01:57;;;;;;;2.70;2.50;;;;;;;;;;5031085;28;20476;-43
2023/08/05 13:04:25;;;;;;;3.17;2.97;;;;;;;;;;5031066;28;20520;-44
2023/08/05 13:06:54;;;;;;;3.17;2.87;;;;;;;;;;5031292;28;20432;-43
2023/08/05 13:09:21;;;;;;;2.87;2.77;;;;;;;;;;5030806;28;20567;-44
2023/08/05 13:11:49;;;;;;;3.10;2.90;;;;;;;;;;5030645;28;20436;-44
2023/08/05 13:14:17;;;;;;;4.00;3.80;;;;;;;;;;5031077;28;20734;-42
2023/08/05 13:16:45;;;;;;;3.50;3.30;;;;;;;;;;5031156;28;20501;-42
2023/08/05 13:19:15;;;;;;;2.90;2.70;;;;;;;;;;5030581;28;20458;-44
2023/08/05 13:21:42;;;;;;;3.20;3.00;;;;;;;;;;5030591;28;20435;-45
2023/08/05 13:24:11;;;;;;;3.10;2.90;;;;;;;;;;5031203;28;20450;-45
2023/08/05 13:26:39;;;;;;;3.70;3.43;;;;;;;;;;5031043;28;20459;-42
2023/08/05 13:29:06;;;;;;;3.77;3.57;;;;;;;;;;5030171;28;20452;-42
2023/08/05 13:31:34;;;;;;;3.57;3.37;;;;;;;;;;5030791;28;20948;-42
2023/08/05 13:34:01;;;;;;;3.47;3.23;;;;;;;;;;5031099;28;20486;-44
2023/08/05 13:36:29;;;;;;;2.97;2.87;;;;;;;;;;5031048;28;20452;-43
2023/08/05 13:38:56;;;;;;;3.00;2.80;;;;;;;;;;5031111;28;20466;-43
2023/08/05 13:41:25;;;;;;;3.40;3.20;;;;;;;;;;5034405;28;20859;-44
2023/08/05 13:43:53;;;;;;;3.80;3.50;;;;;;;;;;5034832;28;20431;-42
2023/08/05 13:46:20;;;;;;;3.23;3.13;;;;;;;;;;5035089;28;20455;-43
2023/08/05 13:48:48;;;;;;;2.80;2.60;;;;;;;;;;5034722;28;20494;-42
2023/08/05 13:51:16;;;;;;;4.17;3.27;;;;;;;;;;5034504;28;20563;-44
2023/08/05 13:53:43;;;;;;;5.10;2.97;;;;;;;;;;5035213;28;21116;-45
2023/08/05 13:56:10;;;;;;;3.30;3.10;;;;;;;;;;5034857;28;20459;-45
2023/08/05 13:58:39;;;;;;;3.23;3.00;;;;;;;;;;5034374;28;20435;-41
2023/08/05 14:01:12;;;;;;;2.87;2.67;;;;;;;;;;5034379;28;20455;-41
2023/08/05 14:03:40;;;;;;;3.43;3.13;;;;;;;;;;5034145;28;20435;-43
2023/08/05 14:06:08;;;;;;;2.83;2.70;;;;;;;;;;5034213;28;20888;-44
2023/08/05 14:08:36;;;;;;;3.10;2.70;;;;;;;;;;5034516;28;20833;-46
2023/08/05 14:11:03;;;;;;;3.20;3.00;;;;;;;;;;5034122;28;20533;-43
2023/08/05 14:13:30;;;;;;;3.47;3.17;;;;;;;;;;5033923;28;20433;-41
2023/08/05 14:15:59;;;;;;;3.23;3.00;;;;;;;;;;5034528;28;20458;-42
2023/08/05 14:18:27;;;;;;;3.40;3.20;;;;;;;;;;5042392;28;20465;-43
2023/08/05 14:20:54;;;;;;;4.70;3.57;;;;;;;;;;5043361;28;21222;-42
2023/08/05 14:23:22;;;;;;;3.83;3.17;;;;;;;;;;5042644;28;20443;-46
2023/08/05 14:25:50;;;;;;;3.50;3.20;;;;;;;;;;5043377;28;20451;-43
2023/08/05 14:28:18;;;;;;;3.10;2.90;;;;;;;;;;5043114;28;20451;-42
2023/08/05 14:30:45;;;;;;;3.07;2.87;;;;;;;;;;5042087;28;20850;-45
2023/08/05 14:33:14;;;;;;;3.03;2.83;;;;;;;;;;5043611;28;20447;-43
2023/08/05 14:35:42;;;;;;;3.10;2.90;;;;;;;;;;5043713;28;20478;-44
2023/08/05 14:38:09;;;;;;;3.20;3.00;;;;;;;;;;5043812;28;20438;-45